Airfield :







YOU CAN JOIN US ON...

 
LOGIN :

Register | Disclaimer

   EN    FR    IT 

 









Legend :    VFR   Marginal VFR   IFR   Intensive IFR   Very Intensive IFR
Visi :
Ceiling :
>= 8 km
>= 3000ft
5 to 8 km
1000 to 3000 ft
1500m to 5 km
500 to 1000 ft
800 to 1500m
200 to 500 ft
< 800m
< 200 ft
Symbols :   Thunderstorms  Fog  Heavy snow  Heavy precipitations  Wind > 20 kt






- Airport Elevation : 555 ft


KORE - Orange Municipal

CURRENT METAR :
  • 241416Z AUTO 21007KT 10SM -RA FEW013 BKN031 OVC038 19/18 A3003 RMK AO2 P0001 T01940178

EXPIRED METARs :
  • 241411Z AUTO VRB06KT 10SM -RA BKN013 BKN025 OVC038 19/18 A3002 RMK AO2 P0001 T01940183
  • 241352Z AUTO 20005KT 6SM -RA BR SCT013 BKN028 OVC040 20/18 A3002 RMK AO2 SLP164 P0004 T02000183
  • 241324Z AUTO 20007KT 7SM -RA BKN011 BKN015 OVC022 20/19 A3002 RMK AO2 P0002 T02000189
  • 241314Z AUTO 21005KT 5SM -RA BR SCT013 BKN023 OVC034 20/19 A3001 RMK AO2 LTG DSNT NE P0001 T02000189
  • 241307Z AUTO 22006KT 4SM -RA BR FEW013 SCT021 OVC037 20/19 A3001 RMK AO2 P0001 T02000189
  • 241252Z AUTO 00000KT 4SM VCTS -RA BR FEW009 BKN037 OVC050 20/19 A3000 RMK AO2 SLP156 P0045 T02000194
  • 241248Z AUTO 00000KT 3SM VCTS RA BR FEW009 BKN037 OVC050 20/19 A2999 RMK AO2 P0044
  • 241238Z AUTO 00000KT 2 1/2SM VCTS -RA BR SCT010 BKN033 OVC065 20/19 A2999 RMK AO2 P0042 T02000194
  • 241228Z AUTO 18004KT 3/4SM VCTS +RA BR FEW008 SCT012 OVC019 20/19 A2999 RMK AO2 P0040 T02000194
  • 241218Z AUTO 00000KT 1SM RA BR FEW008 SCT013 OVC023 21/19 A2998 RMK AO2 P0024 T02060194
  • 241211Z AUTO 20005KT 3/4SM +RA BR FEW011 BKN022 OVC037 21/19 A2999 RMK AO2 LTG DSNT S P0019 T02060194
  • 241158Z AUTO 24009KT 1 1/2SM +RA BR SCT012 BKN019 OVC027 21/19 A2998 RMK AO2 P0005 T02110194
  • 241152Z AUTO 23008KT 5SM -RA BR SCT015 BKN027 OVC049 22/20 A2998 RMK AO2 RAB09 SLP151 P0001 60002 70006 T02220200 10228 20222 55005

TAF N/A
KZBW FIR / North America



MET'MAP, your aeronautical weather chart ! - Copyright ORBIFLY December 2007 - Disclaimer

ORBIFLY MET'MAP TEAM :

Programming & Development : Alexandra Zaïnal
Concept & original design : Baudouin d'Aumeries
Assistance for programming : Marc-Olivier Méhu
Technical & hardware support : Manuel Goepfert

Contact : metmap@orbifly.com




SOURCES & CREDITS :

   NOAA